createdAt,value
2023-02-03T00:04:20.905Z,8.16
2023-02-03T00:09:22.440Z,7.99
2023-02-03T00:14:23.964Z,8.08
2023-02-03T00:19:25.510Z,8.03
2023-02-03T00:24:27.038Z,8.11
2023-02-03T00:29:28.582Z,8.16
2023-02-03T00:34:30.714Z,8.16
2023-02-03T00:39:32.366Z,8.13
2023-02-03T00:44:33.898Z,8.06
2023-02-03T00:49:35.438Z,8.02
2023-02-03T00:54:36.907Z,8.00
2023-02-03T00:59:38.490Z,7.99
2023-02-03T01:04:40.038Z,8.00
2023-02-03T01:09:41.808Z,8.00
2023-02-03T01:14:43.385Z,8.03
2023-02-03T01:19:45.001Z,8.00
2023-02-03T01:24:46.568Z,8.13
2023-02-03T01:29:48.025Z,8.08
2023-02-03T01:34:49.737Z,8.20
2023-02-03T01:39:51.355Z,8.15
2023-02-03T01:44:52.935Z,8.18
2023-02-03T01:49:59.828Z,8.24
2023-02-03T01:55:05.506Z,8.07
2023-02-03T02:00:07.349Z,8.01
2023-02-03T02:05:22.670Z,7.97
2023-02-03T02:10:24.914Z,7.90
2023-02-03T02:15:42.198Z,7.98
2023-02-03T02:21:01.988Z,7.98
2023-02-03T02:26:42.501Z,7.98
2023-02-03T02:31:51.817Z,7.92
2023-02-03T02:37:22.711Z,7.98
2023-02-03T02:42:48.629Z,8.00
2023-02-03T02:47:51.586Z,8.03
2023-02-03T02:52:54.339Z,8.01
2023-02-03T02:58:01.113Z,8.09
2023-02-03T03:03:19.853Z,8.20
2023-02-03T03:08:28.850Z,8.19
2023-02-03T03:13:35.967Z,8.26
2023-02-03T03:18:46.813Z,8.12
2023-02-03T03:23:53.253Z,8.05
2023-02-03T03:29:07.204Z,7.97
2023-02-03T03:34:11.002Z,8.01
2023-02-03T03:39:44.677Z,8.12
2023-02-03T03:45:10.460Z,8.04
2023-02-03T03:50:19.046Z,8.00
2023-02-03T03:55:20.992Z,8.00
2023-02-03T04:00:25.913Z,7.96
2023-02-03T04:05:28.305Z,8.01
2023-02-03T04:10:35.722Z,8.13
2023-02-03T04:15:37.750Z,8.14
2023-02-03T04:20:39.300Z,8.26
2023-02-03T04:25:40.893Z,8.21
2023-02-03T04:30:42.414Z,8.18
2023-02-03T04:35:43.922Z,8.21
2023-02-03T04:40:46.614Z,8.30
2023-02-03T04:45:48.156Z,8.24
2023-02-03T04:50:49.782Z,8.27
2023-02-03T04:55:51.685Z,8.26
2023-02-03T05:00:54.766Z,8.27
2023-02-03T05:05:57.303Z,8.28
2023-02-03T05:11:01.374Z,8.29
2023-02-03T05:16:03.868Z,8.29
2023-02-03T05:21:05.947Z,8.26
2023-02-03T05:26:07.588Z,8.24
2023-02-03T05:31:09.178Z,8.24
2023-02-03T05:36:10.736Z,8.29
2023-02-03T05:41:12.942Z,8.26
2023-02-03T05:46:14.679Z,8.20
2023-02-03T05:51:16.423Z,8.25
2023-02-03T05:56:17.849Z,8.28
2023-02-03T06:01:19.813Z,8.26
2023-02-03T06:06:21.418Z,8.29
2023-02-03T06:11:22.949Z,8.35
2023-02-03T06:16:25.798Z,8.26
2023-02-03T06:21:30.683Z,8.35
2023-02-03T06:26:32.369Z,8.23
2023-02-03T06:31:34.194Z,8.25
2023-02-03T06:36:35.942Z,8.31
2023-02-03T06:41:37.562Z,8.37
2023-02-03T06:46:39.119Z,8.33
2023-02-03T06:51:40.594Z,8.37
2023-02-03T06:56:42.139Z,8.25
2023-02-03T07:01:43.792Z,8.37
2023-02-03T07:06:45.693Z,8.36
2023-02-03T07:11:47.243Z,8.32
2023-02-03T07:16:48.904Z,8.37
2023-02-03T07:21:50.498Z,8.30
2023-02-03T07:26:52.948Z,8.36
2023-02-03T07:31:54.767Z,8.29
2023-02-03T07:36:57.234Z,8.35
2023-02-03T07:41:58.699Z,8.36
2023-02-03T07:47:00.151Z,8.33
2023-02-03T07:52:01.591Z,8.35
2023-02-03T07:57:03.094Z,8.37
2023-02-03T08:02:04.767Z,8.44
2023-02-03T08:07:06.411Z,8.43
2023-02-03T08:12:08.130Z,8.44
2023-02-03T08:17:09.596Z,8.51
2023-02-03T08:22:11.216Z,8.44
2023-02-03T08:27:18.029Z,8.51
2023-02-03T08:32:22.188Z,8.37
2023-02-03T08:37:24.224Z,8.58
2023-02-03T08:42:25.708Z,8.56
2023-02-03T08:47:27.438Z,8.62
2023-02-03T08:52:29.016Z,8.65
2023-02-03T08:57:35.501Z,8.57
2023-02-03T09:02:37.344Z,8.61
2023-02-03T09:07:39.062Z,8.72
2023-02-03T09:12:40.659Z,8.73
2023-02-03T09:17:42.339Z,8.77
2023-02-03T09:22:44.088Z,8.80
2023-02-03T09:27:46.028Z,8.82
2023-02-03T09:32:47.647Z,8.84
2023-02-03T09:37:49.336Z,8.90
2023-02-03T09:43:39.021Z,9.03
2023-02-03T09:48:48.363Z,9.05
2023-02-03T09:54:07.750Z,9.03
2023-02-03T09:59:10.117Z,9.00
2023-02-03T10:04:42.063Z,9.03
2023-02-03T10:09:43.683Z,9.00
2023-02-03T10:15:00.651Z,9.09
2023-02-03T10:20:20.199Z,9.04
2023-02-03T10:25:36.282Z,9.09
2023-02-03T10:30:45.924Z,9.14
2023-02-03T10:35:54.336Z,9.27
2023-02-03T10:40:56.115Z,9.32
2023-02-03T10:45:58.560Z,9.22
2023-02-03T10:51:02.585Z,9.27
2023-02-03T10:56:08.860Z,9.29
2023-02-03T11:01:16.423Z,9.30
2023-02-03T11:06:18.466Z,9.31
2023-02-03T11:11:28.504Z,9.25
2023-02-03T11:16:38.429Z,9.22
2023-02-03T11:21:48.083Z,9.24
2023-02-03T11:26:56.618Z,9.26
2023-02-03T11:32:01.932Z,9.26
2023-02-03T11:37:33.380Z,9.10
2023-02-03T11:42:37.701Z,9.28
2023-02-03T11:47:43.963Z,9.30
2023-02-03T11:53:08.738Z,9.30
2023-02-03T11:58:25.496Z,9.41
2023-02-03T12:03:47.231Z,9.38
2023-02-03T12:09:45.916Z,9.44
2023-02-03T12:15:05.978Z,9.55
2023-02-03T12:20:23.275Z,9.60
2023-02-03T12:25:33.271Z,9.53
2023-02-03T12:30:43.824Z,9.56
2023-02-03T12:35:59.950Z,9.41
2023-02-03T12:41:10.921Z,9.32
2023-02-03T12:46:18.143Z,9.44
2023-02-03T12:51:41.082Z,9.28
2023-02-03T12:56:46.268Z,9.34
2023-02-03T13:02:26.242Z,9.37
2023-02-03T13:07:40.447Z,9.39
2023-02-03T13:12:49.943Z,9.40
2023-02-03T13:18:16.240Z,9.36
2023-02-03T13:23:17.808Z,9.37
2023-02-03T13:28:35.553Z,9.36
2023-02-03T13:33:57.952Z,9.41
2023-02-03T13:39:20.797Z,9.38
2023-02-03T13:44:28.571Z,9.45
2023-02-03T13:49:36.585Z,9.28
2023-02-03T13:54:44.072Z,9.26
2023-02-03T13:59:46.653Z,9.28
2023-02-03T14:04:48.418Z,9.26
2023-02-03T14:10:14.456Z,9.24
2023-02-03T14:15:25.608Z,9.23
2023-02-03T14:20:27.577Z,9.19
2023-02-03T14:25:29.994Z,9.27
2023-02-03T14:30:31.772Z,9.28
2023-02-03T14:35:37.054Z,9.30
2023-02-03T14:40:53.909Z,9.35
2023-02-03T14:46:20.582Z,9.30
2023-02-03T14:52:01.371Z,9.33
2023-02-03T14:57:20.151Z,9.35
2023-02-03T15:02:24.333Z,9.29
2023-02-03T15:07:36.243Z,9.40
2023-02-03T15:12:37.771Z,9.40
2023-02-03T15:17:39.347Z,9.40
2023-02-03T15:22:40.848Z,9.44
2023-02-03T15:27:42.519Z,9.47
2023-02-03T15:33:02.326Z,9.53
2023-02-03T15:38:14.312Z,9.44
2023-02-03T15:43:29.523Z,9.46
2023-02-03T15:48:33.731Z,9.46
2023-02-03T15:53:47.876Z,9.52
2023-02-03T15:58:50.014Z,9.48
2023-02-03T16:03:54.435Z,9.51
2023-02-03T16:08:57.920Z,9.43
2023-02-03T16:14:05.626Z,9.50
2023-02-03T16:19:15.958Z,9.52
2023-02-03T16:24:32.542Z,9.44
2023-02-03T16:29:37.351Z,9.35
2023-02-03T16:34:38.864Z,9.42
2023-02-03T16:39:40.393Z,9.45
2023-02-03T16:44:41.837Z,9.33
2023-02-03T16:49:43.436Z,9.33
2023-02-03T16:54:44.983Z,9.34
2023-02-03T16:59:46.507Z,9.32
2023-02-03T17:04:48.049Z,9.33
2023-02-03T17:09:49.623Z,9.32
2023-02-03T17:14:51.071Z,9.28
2023-02-03T17:19:52.641Z,9.21
2023-02-03T17:24:54.185Z,9.23
2023-02-03T17:29:55.688Z,9.19
2023-02-03T17:34:57.321Z,9.18
2023-02-03T17:55:56.915Z,9.06
2023-02-03T18:00:58.352Z,9.16
2023-02-03T18:06:00.026Z,9.13
2023-02-03T18:11:01.725Z,9.06
2023-02-03T18:16:08.576Z,9.00
2023-02-03T18:21:13.284Z,9.12
2023-02-03T18:26:15.056Z,9.17
2023-02-03T18:31:16.778Z,9.16
2023-02-03T18:36:21.245Z,9.10
2023-02-03T18:41:24.760Z,9.05
2023-02-03T18:46:28.819Z,9.03
2023-02-03T18:51:30.281Z,9.01
2023-02-03T18:56:32.072Z,8.92
2023-02-03T19:01:33.800Z,8.94
2023-02-03T19:06:36.076Z,8.94
2023-02-03T19:11:37.792Z,8.98
2023-02-03T19:16:39.429Z,8.81
2023-02-03T19:21:40.958Z,8.95
2023-02-03T19:26:42.595Z,8.97
2023-02-03T19:31:44.495Z,9.08
2023-02-03T19:36:46.165Z,8.93
2023-02-03T19:41:47.932Z,8.94
2023-02-03T19:46:49.665Z,8.98
2023-02-03T19:51:51.276Z,8.95
2023-02-03T19:56:52.941Z,9.00
2023-02-03T20:01:55.391Z,8.92
2023-02-03T20:06:58.204Z,8.78
2023-02-03T20:11:59.720Z,8.78
2023-02-03T20:17:01.731Z,8.81
2023-02-03T20:22:03.193Z,8.87
2023-02-03T20:27:04.859Z,8.80
2023-02-03T20:32:06.539Z,8.79
2023-02-03T20:37:08.131Z,8.82
2023-02-03T20:42:14.286Z,8.76
2023-02-03T20:47:17.334Z,8.74
2023-02-03T20:52:21.062Z,8.76
2023-02-03T20:57:22.690Z,8.78
2023-02-03T21:02:25.511Z,8.90
2023-02-03T21:07:28.884Z,8.93
2023-02-03T21:12:32.076Z,8.99
2023-02-03T21:17:35.697Z,8.96
2023-02-03T21:22:37.439Z,8.97
2023-02-03T21:27:39.064Z,9.02
2023-02-03T21:32:40.867Z,8.85
2023-02-03T21:37:42.651Z,8.86
2023-02-03T21:42:44.064Z,8.95
2023-02-03T21:47:47.834Z,8.94
2023-02-03T21:52:49.509Z,8.95
2023-02-03T21:57:54.376Z,8.93
2023-02-03T22:02:59.657Z,8.86
2023-02-03T22:08:13.773Z,8.90
2023-02-03T22:13:16.107Z,9.02
2023-02-03T22:18:17.576Z,9.00
2023-02-03T22:23:20.099Z,9.03
2023-02-03T22:28:21.560Z,9.04
2023-02-03T22:33:23.093Z,8.97
2023-02-03T22:38:24.879Z,8.99
2023-02-03T22:43:27.633Z,9.00
2023-02-03T22:48:30.308Z,8.90
2023-02-03T22:53:32.333Z,9.01
2023-02-03T22:58:33.946Z,9.00
2023-02-03T23:03:35.469Z,8.93
2023-02-03T23:08:37.167Z,8.92
2023-02-03T23:13:38.859Z,8.95
2023-02-03T23:18:40.522Z,8.90
2023-02-03T23:23:41.984Z,8.93
2023-02-03T23:28:43.529Z,8.95
2023-02-03T23:33:45.112Z,8.86
2023-02-03T23:38:46.557Z,8.74
2023-02-03T23:43:48.134Z,8.78
2023-02-03T23:48:49.691Z,8.86
2023-02-03T23:53:51.297Z,8.86
2023-02-03T23:58:52.843Z,8.93
